createdAt,value
2018-12-08T00:01:38.118Z,15.93
2018-12-08T00:04:07.079Z,15.57
2018-12-08T00:06:35.991Z,14.50
2018-12-08T00:09:05.618Z,15.47
2018-12-08T00:11:34.554Z,15.23
2018-12-08T00:14:04.170Z,16.27
2018-12-08T00:16:33.045Z,14.87
2018-12-08T00:19:01.928Z,15.57
2018-12-08T00:21:30.914Z,14.27
2018-12-08T00:23:59.781Z,14.73
2018-12-08T00:26:28.710Z,15.30
2018-12-08T00:28:58.602Z,14.57
2018-12-08T00:31:34.249Z,14.37
2018-12-08T00:34:03.278Z,13.73
2018-12-08T00:36:32.162Z,14.07
2018-12-08T00:39:01.014Z,13.70
2018-12-08T00:41:30.024Z,14.27
2018-12-08T00:43:58.902Z,13.70
2018-12-08T00:46:27.811Z,14.50
2018-12-08T00:48:57.003Z,14.87
2018-12-08T00:51:25.927Z,12.80
2018-12-08T00:53:56.929Z,13.63
2018-12-08T00:56:25.776Z,13.37
2018-12-08T00:58:54.659Z,15.30
2018-12-08T01:01:23.902Z,14.10
2018-12-08T01:03:52.798Z,13.57
2018-12-08T01:06:21.668Z,15.03
2018-12-08T01:08:50.590Z,13.13
2018-12-08T01:11:19.445Z,13.80
2018-12-08T01:13:49.539Z,14.17
2018-12-08T01:16:18.458Z,13.03
2018-12-08T01:18:47.342Z,13.30
2018-12-08T01:21:16.226Z,12.80
2018-12-08T01:23:45.150Z,12.63
2018-12-08T01:26:14.038Z,12.43
2018-12-08T01:28:42.890Z,12.77
2018-12-08T01:31:11.950Z,12.80
2018-12-08T01:33:40.874Z,12.07
2018-12-08T01:36:09.742Z,12.57
2018-12-08T01:38:38.698Z,13.13
2018-12-08T01:41:07.565Z,12.97
2018-12-08T01:43:36.421Z,12.67
2018-12-08T01:46:05.358Z,13.67
2018-12-08T01:48:34.243Z,13.50
2018-12-08T01:51:03.098Z,12.37
2018-12-08T01:53:32.046Z,11.90
2018-12-08T01:56:00.913Z,12.97
2018-12-08T01:58:29.761Z,13.70
2018-12-08T02:00:58.711Z,13.10
2018-12-08T02:03:27.927Z,13.30
2018-12-08T02:05:56.797Z,14.77
2018-12-08T02:08:25.724Z,13.43
2018-12-08T02:10:54.621Z,14.63
2018-12-08T02:13:23.505Z,15.30
2018-12-08T02:15:52.442Z,15.17
2018-12-08T02:18:21.323Z,14.80
2018-12-08T02:20:50.193Z,13.77
2018-12-08T02:23:19.120Z,13.70
2018-12-08T02:25:47.995Z,14.33
2018-12-08T02:28:16.858Z,15.37
2018-12-08T02:30:45.791Z,16.40
2018-12-08T02:33:14.698Z,15.70
2018-12-08T02:35:43.944Z,17.03
2018-12-08T02:38:12.888Z,15.53
2018-12-08T02:40:41.755Z,16.93
2018-12-08T02:43:10.622Z,18.70
2018-12-08T02:45:39.546Z,19.63
2018-12-08T02:48:08.437Z,18.57
2018-12-08T02:50:37.293Z,18.03
2018-12-08T02:53:07.016Z,17.47
2018-12-08T02:55:36.721Z,19.67
2018-12-08T02:58:06.365Z,21.20
2018-12-08T03:00:35.287Z,19.20
2018-12-08T03:03:04.166Z,18.80
2018-12-08T03:05:33.699Z,17.93
2018-12-08T03:08:02.674Z,18.87
2018-12-08T03:10:31.518Z,18.37
2018-12-08T03:13:00.386Z,20.63
2018-12-08T03:15:29.314Z,19.87
2018-12-08T03:17:58.204Z,18.70
2018-12-08T03:20:27.704Z,19.73
2018-12-08T03:22:56.639Z,19.03
2018-12-08T03:25:25.519Z,17.83
2018-12-08T03:27:54.402Z,19.10
2018-12-08T03:30:23.344Z,19.70
2018-12-08T03:32:52.271Z,16.83
2018-12-08T03:35:21.133Z,15.50
2018-12-08T03:37:50.462Z,15.83
2018-12-08T03:40:19.306Z,15.20
2018-12-08T03:42:48.216Z,15.40
2018-12-08T03:45:17.157Z,16.73
2018-12-08T03:47:46.031Z,18.57
2018-12-08T03:50:14.886Z,18.20
2018-12-08T03:52:44.748Z,17.67
2018-12-08T03:55:13.702Z,21.30
2018-12-08T03:57:42.577Z,19.10
2018-12-08T04:00:11.534Z,14.43
2018-12-08T04:02:40.431Z,16.60
2018-12-08T04:05:16.728Z,15.97
2018-12-08T04:07:45.988Z,17.30
2018-12-08T04:10:14.877Z,16.97
2018-12-08T04:12:43.802Z,15.80
2018-12-08T04:15:12.747Z,17.50
2018-12-08T04:17:41.604Z,15.83
2018-12-08T04:20:10.565Z,15.80
2018-12-08T04:22:39.442Z,15.97
2018-12-08T04:25:08.362Z,14.33
2018-12-08T04:27:37.289Z,15.57
2018-12-08T04:30:18.436Z,14.67
2018-12-08T04:32:47.372Z,14.97
2018-12-08T04:35:16.219Z,15.23
2018-12-08T04:37:45.092Z,16.67
2018-12-08T04:40:14.029Z,15.90
2018-12-08T04:42:42.979Z,17.10
2018-12-08T04:45:11.862Z,16.90
2018-12-08T04:47:40.777Z,17.70
2018-12-08T04:50:09.655Z,17.27
2018-12-08T04:52:38.514Z,18.10
2018-12-08T04:55:07.466Z,18.23
2018-12-08T04:57:36.326Z,18.53
2018-12-08T05:00:05.515Z,14.97
2018-12-08T05:02:34.512Z,17.30
2018-12-08T05:05:03.849Z,14.83
2018-12-08T05:07:32.708Z,16.17
2018-12-08T05:10:02.003Z,13.77
2018-12-08T05:12:30.902Z,14.00
2018-12-08T05:14:59.783Z,14.07
2018-12-08T05:17:28.693Z,15.23
2018-12-08T05:19:57.556Z,14.00
2018-12-08T05:22:26.417Z,14.23
2018-12-08T05:24:55.357Z,15.83
2018-12-08T05:27:24.217Z,15.53
2018-12-08T05:29:53.082Z,16.77
2018-12-08T05:32:22.014Z,16.73
2018-12-08T05:34:50.926Z,16.83
2018-12-08T05:37:20.537Z,15.43
2018-12-08T05:39:50.275Z,17.93
2018-12-08T05:42:19.122Z,16.27
2018-12-08T05:44:48.007Z,16.33
2018-12-08T05:47:17.006Z,18.30
2018-12-08T05:49:45.877Z,19.47
2018-12-08T05:52:14.758Z,17.03
2018-12-08T05:54:43.706Z,17.50
2018-12-08T05:57:12.611Z,16.43
2018-12-08T05:59:41.474Z,19.23
2018-12-08T06:02:10.433Z,15.23
2018-12-08T06:04:39.286Z,15.30
2018-12-08T06:07:09.017Z,15.43
2018-12-08T06:09:37.934Z,17.20
2018-12-08T06:12:08.306Z,13.83
2018-12-08T06:14:37.243Z,15.03
2018-12-08T06:17:06.435Z,15.17
2018-12-08T06:19:36.333Z,14.53
2018-12-08T06:22:05.199Z,15.10
2018-12-08T06:24:34.157Z,12.07
2018-12-08T06:29:12.134Z,13.67
2018-12-08T06:31:41.066Z,12.93
2018-12-08T06:34:09.936Z,14.20
2018-12-08T06:36:38.806Z,15.47
2018-12-08T06:39:07.781Z,16.83
2018-12-08T06:41:36.662Z,15.07
2018-12-08T06:44:05.554Z,15.93
2018-12-08T06:46:34.486Z,15.85
2018-12-08T06:49:03.426Z,16.83
2018-12-08T06:51:32.298Z,15.73
2018-12-08T06:54:01.254Z,16.23
2018-12-08T06:56:30.113Z,15.30
2018-12-08T06:58:58.966Z,16.77
2018-12-08T07:01:27.898Z,14.13
2018-12-08T07:03:56.798Z,13.73
2018-12-08T07:06:25.666Z,15.20
2018-12-08T07:08:55.386Z,14.90
2018-12-08T07:11:24.242Z,15.40
2018-12-08T07:13:53.618Z,24.93
2018-12-08T07:16:22.533Z,19.73
2018-12-08T07:18:51.441Z,23.52
2018-12-08T07:21:20.303Z,19.50
2018-12-08T07:23:49.233Z,13.53
2018-12-08T07:26:18.101Z,11.47
2018-12-08T07:28:46.950Z,14.45
2018-12-08T07:31:16.029Z,14.33
2018-12-08T07:33:44.893Z,11.28
2018-12-08T07:36:14.070Z,11.47
2018-12-08T07:38:43.024Z,12.10
2018-12-08T07:41:11.886Z,11.13
2018-12-08T07:43:40.756Z,12.43
2018-12-08T07:46:10.586Z,14.68
2018-12-08T07:48:39.458Z,13.90
2018-12-08T07:51:08.309Z,14.40
2018-12-08T07:53:37.246Z,11.20
2018-12-08T07:56:07.047Z,11.23
2018-12-08T07:58:35.912Z,12.70
2018-12-08T08:01:04.847Z,13.13
2018-12-08T08:03:33.726Z,12.37
2018-12-08T08:06:02.619Z,13.70
2018-12-08T08:08:31.549Z,12.60
2018-12-08T08:11:00.490Z,11.23
2018-12-08T08:13:29.362Z,9.77
2018-12-08T08:15:58.488Z,11.47
2018-12-08T08:18:27.367Z,10.45
2018-12-08T08:20:56.230Z,9.27
2018-12-08T08:23:25.155Z,9.67
2018-12-08T08:25:54.022Z,10.78
2018-12-08T08:28:22.892Z,9.07
2018-12-08T08:30:51.834Z,9.47
2018-12-08T08:33:20.763Z,12.23
2018-12-08T08:35:49.632Z,13.97
2018-12-08T08:38:18.650Z,13.07
2018-12-08T08:40:47.514Z,11.60
2018-12-08T08:43:16.374Z,11.25
2018-12-08T08:45:45.290Z,13.20
2018-12-08T08:48:14.184Z,11.43
2018-12-08T08:50:43.814Z,13.00
2018-12-08T08:53:12.742Z,13.07
2018-12-08T08:55:41.626Z,13.33
2018-12-08T08:58:10.510Z,12.47
2018-12-08T09:00:39.434Z,11.20
2018-12-08T09:03:08.294Z,11.45
2018-12-08T09:05:37.154Z,13.30
2018-12-08T09:08:06.088Z,14.55
2018-12-08T09:10:34.969Z,12.20
2018-12-08T09:13:03.858Z,14.27
2018-12-08T09:15:32.813Z,12.70
2018-12-08T09:18:02.326Z,13.03
2018-12-08T09:20:31.174Z,13.10
2018-12-08T09:23:00.123Z,15.07
2018-12-08T09:25:29.001Z,15.57
2018-12-08T09:27:57.869Z,13.50
2018-12-08T09:30:26.877Z,14.10
2018-12-08T09:32:55.815Z,14.03
2018-12-08T09:35:24.712Z,16.20
2018-12-08T09:37:54.643Z,15.93
2018-12-08T09:40:23.520Z,17.00
2018-12-08T09:42:52.395Z,16.67
2018-12-08T09:45:21.542Z,16.93
2018-12-08T09:47:51.250Z,16.10
2018-12-08T09:50:20.163Z,18.70
2018-12-08T09:52:53.474Z,16.95
2018-12-08T09:55:22.327Z,18.35
2018-12-08T09:57:51.174Z,16.87
2018-12-08T10:00:20.142Z,13.58
2018-12-08T10:02:49.957Z,15.15
2018-12-08T10:05:18.819Z,15.03
2018-12-08T10:07:47.771Z,15.38
2018-12-08T10:10:16.687Z,15.08
2018-12-08T10:12:45.590Z,17.05
2018-12-08T10:15:14.534Z,15.80
2018-12-08T10:17:43.463Z,18.13
2018-12-08T10:20:12.674Z,16.50
2018-12-08T10:22:41.645Z,16.57
2018-12-08T10:25:10.529Z,16.67
2018-12-08T10:27:40.192Z,17.37
2018-12-08T10:30:09.734Z,16.12
2018-12-08T10:32:38.853Z,15.08
2018-12-08T10:35:09.659Z,16.95
2018-12-08T10:37:38.860Z,13.98
2018-12-08T10:40:09.403Z,14.50
2018-12-08T10:42:38.439Z,14.68
2018-12-08T10:45:08.265Z,13.48
2018-12-08T10:47:39.195Z,12.95
2018-12-08T10:50:09.241Z,15.58
2018-12-08T10:52:38.183Z,14.95
2018-12-08T10:55:07.350Z,12.05
2018-12-08T10:57:36.247Z,12.58
2018-12-08T11:00:07.786Z,11.97
2018-12-08T11:02:44.936Z,11.95
2018-12-08T11:05:14.583Z,12.10
2018-12-08T11:07:43.480Z,10.90
2018-12-08T11:10:12.359Z,11.45
2018-12-08T11:12:41.361Z,11.22
2018-12-08T11:19:48.523Z,11.28
2018-12-08T11:22:17.811Z,11.30
2018-12-08T11:24:46.686Z,12.18
2018-12-08T11:27:15.637Z,12.75
2018-12-08T11:29:44.525Z,12.47
2018-12-08T11:32:14.058Z,12.82
2018-12-08T11:34:43.030Z,13.28
2018-12-08T11:37:11.952Z,13.10
2018-12-08T11:39:40.869Z,12.98
2018-12-08T11:42:09.852Z,14.13
2018-12-08T11:44:39.007Z,14.10
2018-12-08T11:47:07.906Z,14.40
2018-12-08T11:49:36.844Z,14.30
2018-12-08T11:52:05.727Z,15.25
2018-12-08T11:54:34.598Z,14.50
2018-12-08T11:57:03.559Z,14.55
2018-12-08T11:59:32.443Z,14.70
2018-12-08T12:02:01.442Z,12.55
2018-12-08T12:04:30.452Z,12.73
2018-12-08T12:06:59.338Z,12.75
2018-12-08T12:09:28.381Z,12.98
2018-12-08T12:11:57.317Z,11.90
2018-12-08T12:14:57.221Z,12.53
2018-12-08T12:17:26.158Z,11.15
2018-12-08T12:19:55.035Z,13.20
2018-12-08T12:22:24.556Z,12.88
2018-12-08T12:24:53.490Z,11.88
2018-12-08T12:27:22.371Z,13.43
2018-12-08T12:29:51.321Z,11.90
2018-12-08T12:32:20.274Z,11.88
2018-12-08T12:34:49.155Z,10.95
2018-12-08T12:37:18.075Z,10.63
2018-12-08T12:39:46.994Z,11.03
2018-12-08T12:42:15.869Z,11.55
2018-12-08T12:44:44.734Z,11.95
2018-12-08T12:47:13.685Z,11.73
2018-12-08T12:49:42.594Z,13.50
2018-12-08T12:52:11.463Z,14.15
2018-12-08T12:54:40.382Z,14.07
2018-12-08T12:57:10.025Z,11.97
2018-12-08T12:59:38.958Z,14.47
2018-12-08T13:02:07.890Z,13.90
2018-12-08T13:04:36.782Z,13.38
2018-12-08T13:07:05.686Z,13.32
2018-12-08T13:09:34.617Z,11.68
2018-12-08T13:12:04.758Z,11.95
2018-12-08T13:14:33.626Z,11.60
2018-12-08T13:17:02.643Z,12.90
2018-12-08T13:19:31.504Z,14.03
2018-12-08T13:22:00.391Z,13.32
2018-12-08T13:24:32.309Z,11.53
2018-12-08T13:27:02.072Z,11.97
2018-12-08T13:29:30.950Z,13.60
2018-12-08T13:32:00.113Z,11.28
2018-12-08T13:34:29.821Z,11.68
2018-12-08T13:36:58.686Z,13.22
2018-12-08T13:39:27.681Z,12.07
2018-12-08T13:41:56.593Z,11.78
2018-12-08T13:44:33.889Z,11.78
2018-12-08T13:47:03.210Z,12.73
2018-12-08T13:49:32.260Z,12.63
2018-12-08T13:52:01.332Z,13.80
2018-12-08T13:54:47.362Z,12.85
2018-12-08T13:57:16.430Z,12.20
2018-12-08T13:59:54.259Z,12.35
2018-12-08T14:02:23.217Z,12.07
2018-12-08T14:04:52.105Z,11.48
2018-12-08T14:07:21.101Z,12.55
2018-12-08T14:09:50.046Z,12.28
2018-12-08T14:12:18.913Z,10.65
2018-12-08T14:14:47.777Z,12.00
2018-12-08T14:17:17.678Z,12.35
2018-12-08T14:19:46.541Z,11.80
2018-12-08T14:22:15.552Z,12.03
2018-12-08T14:24:44.978Z,12.67
2018-12-08T14:27:13.877Z,12.05
2018-12-08T14:29:42.771Z,13.38
2018-12-08T14:32:11.698Z,13.28
2018-12-08T14:34:40.592Z,14.50
2018-12-08T14:37:09.472Z,13.22
2018-12-08T14:39:38.424Z,13.43
2018-12-08T14:42:07.317Z,13.60
2018-12-08T14:44:36.184Z,12.82
2018-12-08T14:47:05.234Z,13.03
2018-12-08T14:49:34.161Z,11.48
2018-12-08T14:52:03.024Z,14.93
2018-12-08T14:54:31.999Z,13.58
2018-12-08T14:57:01.687Z,12.55
2018-12-08T14:59:30.568Z,12.60
2018-12-08T15:02:00.631Z,12.05
2018-12-08T15:04:29.564Z,10.90
2018-12-08T15:06:58.422Z,11.87
2018-12-08T15:09:27.377Z,13.20
2018-12-08T15:12:08.565Z,12.50
2018-12-08T15:14:37.552Z,13.03
2018-12-08T15:17:06.115Z,12.95
2018-12-08T15:19:34.988Z,12.43
2018-12-08T15:22:04.135Z,12.90
2018-12-08T15:24:33.055Z,13.35
2018-12-08T15:27:02.350Z,15.07
2018-12-08T15:29:31.631Z,13.28
2018-12-08T15:32:00.511Z,16.35
2018-12-08T15:34:29.427Z,14.43
2018-12-08T15:36:58.399Z,14.17
2018-12-08T15:39:27.282Z,14.27
2018-12-08T15:41:56.197Z,14.40
2018-12-08T15:44:25.193Z,14.30
2018-12-08T15:46:54.069Z,15.93
2018-12-08T15:49:22.967Z,14.30
2018-12-08T15:51:55.852Z,17.23
2018-12-08T15:54:24.807Z,15.20
2018-12-08T15:56:53.684Z,14.37
2018-12-08T15:59:22.650Z,12.50
2018-12-08T16:01:51.618Z,14.45
2018-12-08T16:04:20.513Z,14.78
2018-12-08T16:06:49.554Z,13.40
2018-12-08T16:09:18.441Z,13.73
2018-12-08T16:11:47.290Z,15.03
2018-12-08T16:14:16.390Z,15.30
2018-12-08T16:16:45.242Z,15.07
2018-12-08T16:19:14.170Z,15.63
2018-12-08T16:21:43.423Z,15.32
2018-12-08T16:24:12.295Z,16.27
2018-12-08T16:26:41.218Z,15.80
2018-12-08T16:29:10.550Z,16.07
2018-12-08T16:31:39.427Z,16.47
2018-12-08T16:34:08.354Z,17.80
2018-12-08T16:36:37.604Z,19.40
2018-12-08T16:39:07.454Z,18.17
2018-12-08T16:41:36.365Z,17.52
2018-12-08T16:44:06.302Z,19.60
2018-12-08T16:46:35.214Z,18.33
2018-12-08T16:49:04.134Z,17.73
2018-12-08T16:51:33.101Z,16.80
2018-12-08T16:54:01.984Z,17.20
2018-12-08T16:56:30.855Z,19.07
2018-12-08T16:58:59.792Z,18.17
2018-12-08T17:01:28.678Z,18.73
2018-12-08T17:03:57.680Z,17.98
2018-12-08T17:06:26.674Z,19.10
2018-12-08T17:08:56.622Z,19.70
2018-12-08T17:11:25.496Z,19.98
2018-12-08T17:13:54.516Z,20.93
2018-12-08T17:16:23.374Z,20.87
2018-12-08T17:18:52.335Z,23.10
2018-12-08T17:21:21.465Z,20.53
2018-12-08T17:23:50.358Z,22.53
2018-12-08T17:26:19.250Z,25.12
2018-12-08T17:28:48.982Z,23.75
2018-12-08T17:31:17.945Z,25.32
2018-12-08T17:33:46.812Z,23.87
2018-12-08T17:36:15.742Z,23.90
2018-12-08T17:38:44.647Z,21.90
2018-12-08T17:41:13.526Z,20.97
2018-12-08T17:43:42.559Z,20.67
2018-12-08T17:46:11.750Z,19.73
2018-12-08T17:48:40.612Z,18.73
2018-12-08T17:51:10.526Z,17.40
2018-12-08T17:53:39.375Z,20.97
2018-12-08T17:56:08.477Z,18.50
2018-12-08T17:58:37.478Z,20.88
2018-12-08T18:01:06.372Z,21.55
2018-12-08T18:03:35.245Z,20.35
2018-12-08T18:06:04.181Z,20.20
2018-12-08T18:08:33.046Z,21.50
2018-12-08T18:11:01.918Z,21.87
2018-12-08T18:13:30.867Z,22.50
2018-12-08T18:15:59.801Z,22.37
2018-12-08T18:18:28.762Z,22.67
2018-12-08T18:20:58.008Z,22.90
2018-12-08T18:23:28.118Z,22.02
2018-12-08T18:25:57.060Z,20.27
2018-12-08T18:28:25.986Z,19.60
2018-12-08T18:30:54.875Z,21.00
2018-12-08T18:33:24.066Z,22.17
2018-12-08T18:35:53.030Z,23.57
2018-12-08T18:38:21.902Z,22.02
2018-12-08T18:40:50.799Z,21.90
2018-12-08T18:43:19.750Z,21.97
2018-12-08T18:45:48.665Z,21.43
2018-12-08T18:48:17.579Z,21.35
2018-12-08T18:50:46.507Z,20.80
2018-12-08T18:53:15.384Z,17.10
2018-12-08T18:55:44.242Z,18.82
2018-12-08T18:58:13.286Z,19.42
2018-12-08T19:00:42.458Z,19.62
2018-12-08T19:03:11.333Z,17.90
2018-12-08T19:05:40.282Z,17.97
2018-12-08T19:08:09.226Z,20.47
2018-12-08T19:10:38.114Z,18.73
2018-12-08T19:13:07.081Z,19.00
2018-12-08T19:15:35.998Z,17.07
2018-12-08T19:18:04.885Z,17.10
2018-12-08T19:20:33.849Z,13.07
2018-12-08T19:23:02.811Z,14.77
2018-12-08T19:25:31.678Z,14.47
2018-12-08T19:28:00.613Z,12.50
2018-12-08T19:30:29.510Z,12.30
2018-12-08T19:32:58.356Z,10.43
2018-12-08T19:35:27.601Z,11.63
2018-12-08T19:37:56.863Z,10.20
2018-12-08T19:40:25.729Z,12.35
2018-12-08T19:42:54.747Z,11.27
2018-12-08T19:45:23.633Z,12.00
2018-12-08T19:47:54.419Z,9.57
2018-12-08T19:50:23.444Z,9.07
2018-12-08T19:52:52.310Z,9.83
2018-12-08T19:56:45.517Z,10.20
2018-12-08T19:59:14.392Z,11.27
2018-12-08T20:01:43.263Z,13.20
2018-12-08T20:04:12.208Z,12.47
2018-12-08T20:06:41.094Z,12.93
2018-12-08T20:09:09.990Z,14.27
2018-12-08T20:11:38.921Z,16.30
2018-12-08T20:14:07.795Z,17.45
2018-12-08T20:16:36.662Z,17.95
2018-12-08T20:19:05.633Z,19.30
2018-12-08T20:21:34.521Z,17.87
2018-12-08T20:24:03.374Z,18.43
2018-12-08T20:26:32.510Z,19.73
2018-12-08T20:29:01.378Z,21.35
2018-12-08T20:31:30.262Z,20.87
2018-12-08T20:33:59.707Z,19.93
2018-12-08T20:36:29.014Z,21.23
2018-12-08T20:38:57.924Z,20.85
2018-12-08T20:41:26.857Z,20.40
2018-12-08T20:43:55.706Z,20.95
2018-12-08T20:46:25.935Z,22.30
2018-12-08T20:48:55.889Z,22.37
2018-12-08T20:51:24.843Z,21.73
2018-12-08T20:53:53.760Z,22.40
2018-12-08T20:56:22.769Z,18.00
2018-12-08T20:58:51.718Z,17.55
2018-12-08T21:01:20.680Z,18.23
2018-12-08T21:03:49.684Z,16.85
2018-12-08T21:06:18.590Z,17.02
2018-12-08T21:08:48.614Z,17.10
2018-12-08T21:11:17.601Z,17.27
2018-12-08T21:13:46.524Z,17.23
2018-12-08T21:16:15.428Z,16.52
2018-12-08T21:18:44.408Z,15.83
2018-12-08T21:21:13.331Z,17.23
2018-12-08T21:23:42.283Z,16.57
2018-12-08T21:26:11.348Z,14.33
2018-12-08T21:28:40.319Z,15.35
2018-12-08T21:31:09.242Z,15.23
2018-12-08T21:33:38.398Z,15.60
2018-12-08T21:36:07.304Z,16.45
2018-12-08T21:38:36.656Z,13.60
2018-12-08T21:41:05.643Z,15.10
2018-12-08T21:43:34.612Z,15.07
2018-12-08T21:46:04.461Z,12.93
2018-12-08T21:48:33.452Z,14.25
2018-12-08T21:51:02.377Z,14.07
2018-12-08T21:53:31.426Z,14.43
2018-12-08T21:56:00.400Z,13.15
2018-12-08T21:58:29.316Z,13.18
2018-12-08T22:00:58.249Z,12.82
2018-12-08T22:03:27.253Z,13.10
2018-12-08T22:05:56.161Z,12.10
2018-12-08T22:08:25.067Z,14.03
2018-12-08T22:10:54.142Z,12.75
2018-12-08T22:13:23.098Z,13.72
2018-12-08T22:15:52.333Z,13.25
2018-12-08T22:18:21.345Z,12.45
2018-12-08T22:20:50.849Z,11.85
2018-12-08T22:23:19.767Z,12.98
2018-12-08T22:25:48.737Z,14.63
2018-12-08T22:28:17.629Z,13.60
2018-12-08T22:30:46.545Z,14.47
2018-12-08T22:33:15.548Z,13.90
2018-12-08T22:35:44.601Z,13.83
2018-12-08T22:38:13.501Z,15.85
2018-12-08T22:40:42.892Z,15.33
2018-12-08T22:43:12.792Z,15.87
2018-12-08T22:45:41.708Z,14.73
2018-12-08T22:48:10.689Z,15.63
2018-12-08T22:50:39.612Z,13.60
2018-12-08T22:53:08.552Z,13.03
2018-12-08T22:55:37.532Z,11.80
2018-12-08T22:58:06.429Z,13.13
2018-12-08T23:00:41.896Z,12.37
2018-12-08T23:03:11.371Z,11.53
2018-12-08T23:05:40.287Z,12.13
2018-12-08T23:08:09.264Z,11.90
2018-12-08T23:10:38.272Z,11.45
2018-12-08T23:13:07.177Z,12.17
2018-12-08T23:15:36.775Z,12.18
2018-12-08T23:18:05.688Z,13.90
2018-12-08T23:20:34.643Z,12.28
2018-12-08T23:23:03.793Z,12.45
2018-12-08T23:25:32.712Z,13.48
2018-12-08T23:28:01.641Z,11.83
2018-12-08T23:30:30.620Z,11.68
2018-12-08T23:32:59.525Z,13.18
2018-12-08T23:35:28.495Z,11.65
2018-12-08T23:37:57.542Z,11.93
2018-12-08T23:40:26.502Z,12.05
2018-12-08T23:42:55.726Z,11.00
2018-12-08T23:45:25.531Z,12.05
2018-12-08T23:47:54.480Z,11.30
2018-12-08T23:50:23.455Z,11.12
2018-12-08T23:52:52.485Z,11.73
2018-12-08T23:55:21.388Z,11.80
2018-12-08T23:57:50.301Z,11.83
